createdAt,value
2023-02-27T00:01:47.880Z,73.76
2023-02-27T00:04:14.624Z,73.82
2023-02-27T00:06:41.219Z,73.39
2023-02-27T00:09:08.340Z,73.56
2023-02-27T00:11:34.847Z,73.87
2023-02-27T00:14:01.289Z,73.57
2023-02-27T00:16:27.810Z,73.96
2023-02-27T00:18:54.369Z,73.70
2023-02-27T00:21:20.982Z,73.95
2023-02-27T00:23:47.413Z,73.44
2023-02-27T00:26:13.959Z,73.94
2023-02-27T00:28:40.469Z,73.74
2023-02-27T00:31:06.982Z,73.71
2023-02-27T00:33:33.473Z,74.21
2023-02-27T00:36:01.960Z,74.19
2023-02-27T00:38:29.282Z,74.02
2023-02-27T00:40:55.830Z,74.16
2023-02-27T00:43:22.298Z,74.32
2023-02-27T00:45:48.856Z,74.46
2023-02-27T00:48:16.299Z,74.37
2023-02-27T00:50:43.543Z,74.78
2023-02-27T00:53:10.310Z,74.87
2023-02-27T00:55:36.823Z,74.71
2023-02-27T00:58:03.569Z,74.85
2023-02-27T01:00:30.116Z,75.27
2023-02-27T01:02:56.692Z,75.47
2023-02-27T01:05:23.281Z,75.80
2023-02-27T01:07:50.167Z,74.80
2023-02-27T01:10:16.843Z,75.48
2023-02-27T01:12:43.693Z,75.03
2023-02-27T01:15:11.942Z,74.97
2023-02-27T01:17:38.639Z,74.96
2023-02-27T01:20:07.092Z,75.26
2023-02-27T01:22:34.208Z,75.47
2023-02-27T01:25:00.964Z,75.61
2023-02-27T01:27:27.889Z,75.42
2023-02-27T01:29:54.409Z,75.84
2023-02-27T01:32:20.974Z,75.94
2023-02-27T01:34:47.655Z,75.89
2023-02-27T01:37:14.168Z,76.19
2023-02-27T01:39:40.655Z,76.41
2023-02-27T01:42:25.692Z,76.57
2023-02-27T01:45:24.086Z,76.13
2023-02-27T01:47:56.393Z,76.51
2023-02-27T01:50:23.935Z,76.84
2023-02-27T01:52:56.196Z,76.78
2023-02-27T01:55:24.680Z,77.24
2023-02-27T01:57:52.981Z,77.18
2023-02-27T02:00:19.931Z,77.34
2023-02-27T02:03:17.123Z,77.28
2023-02-27T02:05:45.230Z,77.33
2023-02-27T02:08:15.057Z,77.31
2023-02-27T02:10:41.788Z,77.55
2023-02-27T02:13:09.524Z,77.91
2023-02-27T02:15:41.884Z,77.72
2023-02-27T02:18:36.379Z,77.92
2023-02-27T02:21:40.127Z,77.73
2023-02-27T02:24:45.147Z,77.57
2023-02-27T02:27:28.680Z,78.37
2023-02-27T02:30:15.415Z,78.08
2023-02-27T02:33:06.469Z,78.48
2023-02-27T02:36:09.236Z,78.68
2023-02-27T02:38:49.676Z,78.26
2023-02-27T02:41:51.450Z,78.05
2023-02-27T02:44:36.362Z,78.74
2023-02-27T02:47:11.352Z,78.54
2023-02-27T02:49:43.838Z,78.65
2023-02-27T02:52:23.056Z,78.37
2023-02-27T02:54:55.253Z,78.62
2023-02-27T02:57:29.812Z,78.90
2023-02-27T03:00:09.374Z,78.69
2023-02-27T03:02:43.554Z,78.73
2023-02-27T03:05:17.187Z,78.54
2023-02-27T03:08:02.963Z,78.90
2023-02-27T03:10:38.062Z,79.04
2023-02-27T03:13:18.060Z,78.80
2023-02-27T03:16:04.903Z,79.29
2023-02-27T03:19:18.372Z,79.09
2023-02-27T03:21:57.354Z,79.18
2023-02-27T03:24:30.173Z,79.16
2023-02-27T03:27:02.754Z,79.23
2023-02-27T03:29:49.465Z,78.88
2023-02-27T03:32:25.171Z,79.02
2023-02-27T03:34:51.732Z,79.23
2023-02-27T03:37:39.948Z,79.35
2023-02-27T03:40:19.887Z,79.62
2023-02-27T03:42:57.837Z,79.73
2023-02-27T03:45:43.573Z,79.91
2023-02-27T03:48:10.136Z,79.98
2023-02-27T03:50:37.417Z,80.18
2023-02-27T03:53:11.194Z,80.37
2023-02-27T03:55:43.844Z,80.65
2023-02-27T03:58:10.498Z,80.78
2023-02-27T04:00:37.420Z,80.40
2023-02-27T04:03:05.424Z,80.68
2023-02-27T04:05:33.039Z,80.82
2023-02-27T04:08:11.385Z,81.13
2023-02-27T04:10:53.060Z,81.33
2023-02-27T04:13:36.794Z,81.12
2023-02-27T04:16:27.726Z,81.26
2023-02-27T04:19:37.054Z,81.64
2023-02-27T04:22:09.382Z,81.64
2023-02-27T04:24:58.979Z,81.73
2023-02-27T04:27:40.497Z,81.64
2023-02-27T04:30:36.404Z,81.88
2023-02-27T04:33:08.746Z,82.20
2023-02-27T04:35:59.777Z,81.87
2023-02-27T04:38:32.274Z,81.93
2023-02-27T04:41:08.844Z,82.11
2023-02-27T04:43:38.889Z,82.04
2023-02-27T04:46:08.733Z,82.39
2023-02-27T04:48:54.023Z,82.11
2023-02-27T04:51:26.582Z,82.01
2023-02-27T04:53:58.786Z,82.24
2023-02-27T04:56:31.222Z,82.70
2023-02-27T04:59:03.872Z,82.59
2023-02-27T05:01:55.430Z,82.37
2023-02-27T05:04:24.417Z,82.36
2023-02-27T05:06:54.222Z,82.72
2023-02-27T05:09:31.284Z,82.76
2023-02-27T05:12:32.068Z,83.06
2023-02-27T05:15:06.297Z,82.69
2023-02-27T05:17:48.535Z,82.96
2023-02-27T05:20:17.277Z,82.98
2023-02-27T05:22:59.615Z,83.01
2023-02-27T05:25:53.944Z,83.21
2023-02-27T05:28:45.069Z,83.31
2023-02-27T05:31:33.091Z,83.19
2023-02-27T05:34:17.734Z,83.19
2023-02-27T05:36:51.957Z,83.45
2023-02-27T05:39:23.019Z,82.94
2023-02-27T05:42:19.648Z,83.02
2023-02-27T05:44:53.969Z,83.42
2023-02-27T05:47:24.101Z,83.35
2023-02-27T05:50:00.064Z,83.37
2023-02-27T05:52:29.403Z,83.26
2023-02-27T05:54:56.042Z,83.19
2023-02-27T05:57:45.783Z,83.55
2023-02-27T06:00:38.816Z,83.94
2023-02-27T06:03:05.553Z,83.42
2023-02-27T06:05:32.573Z,83.80
2023-02-27T06:07:59.042Z,84.10
2023-02-27T06:10:26.083Z,83.94
2023-02-27T06:12:52.674Z,83.67
2023-02-27T06:15:19.707Z,83.07
2023-02-27T06:17:46.263Z,83.18
2023-02-27T06:20:13.031Z,83.72
2023-02-27T06:22:39.630Z,83.58
2023-02-27T06:25:06.627Z,83.85
2023-02-27T06:27:33.110Z,83.86
2023-02-27T06:29:59.721Z,83.44
2023-02-27T06:32:26.244Z,83.54
2023-02-27T06:34:53.204Z,84.38
2023-02-27T06:37:21.562Z,84.04
2023-02-27T06:39:48.120Z,84.14
2023-02-27T06:42:14.592Z,84.41
2023-02-27T06:44:41.053Z,84.13
2023-02-27T06:47:07.521Z,84.50
2023-02-27T06:49:34.015Z,84.07
2023-02-27T06:52:00.509Z,84.27
2023-02-27T06:54:27.042Z,84.00
2023-02-27T06:56:53.502Z,84.16
2023-02-27T06:59:20.034Z,84.53
2023-02-27T07:01:46.512Z,84.03
2023-02-27T07:04:16.749Z,84.22
2023-02-27T07:07:35.316Z,84.25
2023-02-27T07:09:30.066Z,84.04
2023-02-27T07:11:56.641Z,84.13
2023-02-27T07:14:23.309Z,84.18
2023-02-27T07:16:53.895Z,84.29
2023-02-27T07:19:21.885Z,84.15
2023-02-27T07:21:48.808Z,84.35
2023-02-27T07:24:15.556Z,84.00
2023-02-27T07:26:42.114Z,84.00
2023-02-27T07:29:09.837Z,84.02
2023-02-27T07:31:36.383Z,83.63
2023-02-27T07:34:03.400Z,83.69
2023-02-27T07:36:31.104Z,83.51
2023-02-27T07:38:58.268Z,83.58
2023-02-27T07:41:30.836Z,83.20
2023-02-27T07:43:57.834Z,83.15
2023-02-27T07:46:27.364Z,83.01
2023-02-27T07:48:54.617Z,82.59
2023-02-27T07:51:21.495Z,82.23
2023-02-27T07:53:48.025Z,82.08
2023-02-27T07:56:14.688Z,81.82
2023-02-27T07:58:41.158Z,81.56
2023-02-27T08:01:07.675Z,80.83
2023-02-27T08:03:34.245Z,80.41
2023-02-27T08:06:02.365Z,80.39
2023-02-27T08:08:29.697Z,79.87
2023-02-27T08:10:56.344Z,80.07
2023-02-27T08:13:42.306Z,79.94
2023-02-27T08:16:09.535Z,78.67
2023-02-27T08:18:36.176Z,78.53
2023-02-27T08:21:04.978Z,78.47
2023-02-27T08:23:32.544Z,78.24
2023-02-27T08:25:59.285Z,77.97
2023-02-27T08:28:25.808Z,79.76
2023-02-27T08:30:52.590Z,78.72
2023-02-27T08:33:19.186Z,78.15
2023-02-27T08:35:45.741Z,76.50
2023-02-27T08:38:12.313Z,74.88
2023-02-27T08:40:38.985Z,75.02
2023-02-27T08:43:05.432Z,74.91
2023-02-27T08:45:31.946Z,74.40
2023-02-27T08:47:58.510Z,73.60
2023-02-27T08:50:25.036Z,73.14
2023-02-27T08:52:51.599Z,73.20
2023-02-27T08:55:18.320Z,73.43
2023-02-27T08:57:44.788Z,73.52
2023-02-27T09:00:14.654Z,72.53
2023-02-27T09:02:41.644Z,72.55
2023-02-27T09:05:08.677Z,72.37
2023-02-27T09:07:35.194Z,72.27
2023-02-27T09:10:01.656Z,72.18
2023-02-27T09:12:28.180Z,72.04
2023-02-27T09:14:54.851Z,71.41
2023-02-27T09:17:21.705Z,71.34
2023-02-27T09:19:48.226Z,70.82
2023-02-27T09:22:14.764Z,70.04
2023-02-27T09:24:41.243Z,69.79
2023-02-27T09:27:07.745Z,70.13
2023-02-27T09:29:34.335Z,69.17
2023-02-27T09:32:01.088Z,68.75
2023-02-27T09:34:27.697Z,69.21
2023-02-27T09:36:54.143Z,68.86
2023-02-27T09:39:21.463Z,67.91
2023-02-27T09:42:05.488Z,68.06
2023-02-27T09:45:05.505Z,67.97
2023-02-27T09:47:40.049Z,66.61
2023-02-27T09:50:18.416Z,66.71
2023-02-27T09:52:45.135Z,66.23
2023-02-27T09:55:19.041Z,65.04
2023-02-27T09:58:14.209Z,66.56
2023-02-27T10:00:55.719Z,66.14
2023-02-27T10:03:47.907Z,65.31
2023-02-27T10:06:33.929Z,64.17
2023-02-27T10:09:14.368Z,64.22
2023-02-27T10:11:58.240Z,64.25
2023-02-27T10:14:33.705Z,63.45
2023-02-27T10:17:03.771Z,62.54
2023-02-27T10:19:37.241Z,63.52
2023-02-27T10:22:10.209Z,62.92
2023-02-27T10:24:52.576Z,62.51
2023-02-27T10:27:21.660Z,62.87
2023-02-27T10:29:48.485Z,61.28
2023-02-27T10:32:17.128Z,60.81
2023-02-27T10:34:49.027Z,60.31
2023-02-27T10:37:18.300Z,60.97
2023-02-27T10:40:00.414Z,60.22
2023-02-27T10:42:33.003Z,60.26
2023-02-27T10:44:59.602Z,60.27
2023-02-27T10:47:26.724Z,60.09
2023-02-27T10:49:54.782Z,60.07
2023-02-27T10:52:21.587Z,59.65
2023-02-27T10:54:48.717Z,60.78
2023-02-27T10:57:30.455Z,58.47
2023-02-27T11:00:06.433Z,59.41
2023-02-27T11:02:37.231Z,57.85
2023-02-27T11:05:06.676Z,56.30
2023-02-27T11:07:37.364Z,54.70
2023-02-27T11:10:06.806Z,55.66
2023-02-27T11:12:35.370Z,55.11
2023-02-27T11:15:23.700Z,53.42
2023-02-27T11:17:50.211Z,53.09
2023-02-27T11:20:33.739Z,51.72
2023-02-27T11:23:16.566Z,53.21
2023-02-27T11:25:44.125Z,53.80
2023-02-27T11:28:22.941Z,53.47
2023-02-27T11:31:00.999Z,52.78
2023-02-27T11:33:29.655Z,52.23
2023-02-27T11:35:58.709Z,51.73
2023-02-27T11:38:29.292Z,52.82
2023-02-27T11:41:04.690Z,52.54
2023-02-27T11:43:48.276Z,51.35
2023-02-27T11:46:41.993Z,52.87
2023-02-27T11:49:33.531Z,51.55
2023-02-27T11:52:29.155Z,51.57
2023-02-27T11:54:58.786Z,50.57
2023-02-27T11:57:25.316Z,50.48
2023-02-27T12:00:08.448Z,50.28
2023-02-27T12:02:55.338Z,50.98
2023-02-27T12:05:30.493Z,49.24
2023-02-27T12:08:11.217Z,48.78
2023-02-27T12:10:55.626Z,49.68
2023-02-27T12:13:30.133Z,49.03
2023-02-27T12:16:33.322Z,50.04
2023-02-27T12:19:15.042Z,49.01
2023-02-27T12:21:48.399Z,48.06
2023-02-27T12:24:26.020Z,48.52
2023-02-27T12:27:24.850Z,48.82
2023-02-27T12:29:59.021Z,48.89
2023-02-27T12:32:31.803Z,47.67
2023-02-27T12:35:13.828Z,48.06
2023-02-27T12:37:40.312Z,48.25
2023-02-27T12:40:09.131Z,47.02
2023-02-27T12:42:36.163Z,46.38
2023-02-27T12:45:05.254Z,47.08
2023-02-27T12:48:03.931Z,48.16
2023-02-27T12:51:02.784Z,45.80
2023-02-27T12:53:35.567Z,46.85
2023-02-27T12:56:10.834Z,46.66
2023-02-27T12:58:46.054Z,45.95
2023-02-27T13:01:21.318Z,45.38
2023-02-27T13:04:20.243Z,46.18
2023-02-27T13:07:04.771Z,45.80
2023-02-27T13:09:50.444Z,46.44
2023-02-27T13:12:40.884Z,45.71
2023-02-27T13:15:29.539Z,45.90
2023-02-27T13:18:16.146Z,46.89
2023-02-27T13:21:18.507Z,46.75
2023-02-27T13:24:09.942Z,47.48
2023-02-27T13:26:41.564Z,47.61
2023-02-27T13:29:15.357Z,48.51
2023-02-27T13:31:52.862Z,48.67
2023-02-27T13:34:40.694Z,48.97
2023-02-27T13:37:09.041Z,48.39
2023-02-27T13:39:51.807Z,48.00
2023-02-27T13:42:27.354Z,46.88
2023-02-27T13:44:58.912Z,48.04
2023-02-27T13:47:31.152Z,48.22
2023-02-27T13:50:21.466Z,48.80
2023-02-27T13:52:48.779Z,49.12
2023-02-27T13:55:37.708Z,49.99
2023-02-27T13:58:05.670Z,50.38
2023-02-27T14:00:34.978Z,49.96
2023-02-27T14:03:08.751Z,49.61
2023-02-27T14:05:42.372Z,50.83
2023-02-27T14:08:11.888Z,48.87
2023-02-27T14:10:50.285Z,48.09
2023-02-27T14:13:50.950Z,45.71
2023-02-27T14:16:39.821Z,44.82
2023-02-27T14:19:28.142Z,42.84
2023-02-27T14:22:01.028Z,41.00
2023-02-27T14:25:00.931Z,40.03
2023-02-27T14:27:38.633Z,39.81
2023-02-27T14:30:10.036Z,38.87
2023-02-27T14:32:37.779Z,38.36
2023-02-27T14:35:06.165Z,39.75
2023-02-27T14:37:35.567Z,42.00
2023-02-27T14:40:06.060Z,42.34
2023-02-27T14:42:45.617Z,41.52
2023-02-27T14:45:20.697Z,44.09
2023-02-27T14:47:47.780Z,42.88
2023-02-27T14:50:40.816Z,43.31
2023-02-27T14:53:21.277Z,43.94
2023-02-27T14:55:54.376Z,43.46
2023-02-27T14:58:22.189Z,43.22
2023-02-27T15:01:02.432Z,43.90
2023-02-27T15:03:34.871Z,43.98
2023-02-27T15:06:04.860Z,43.09
2023-02-27T15:08:38.005Z,41.93
2023-02-27T15:11:06.398Z,43.50
2023-02-27T15:13:36.521Z,43.15
2023-02-27T15:16:31.749Z,43.00
2023-02-27T15:19:15.274Z,43.04
2023-02-27T15:21:50.019Z,44.16
2023-02-27T15:24:31.380Z,42.48
2023-02-27T15:27:01.389Z,43.11
2023-02-27T15:29:42.472Z,45.19
2023-02-27T15:32:17.741Z,45.90
2023-02-27T15:34:45.104Z,45.42
2023-02-27T15:37:27.372Z,44.29
2023-02-27T15:39:55.121Z,41.37
2023-02-27T15:42:26.405Z,40.72
2023-02-27T15:44:54.075Z,39.46
2023-02-27T15:47:30.871Z,38.21
2023-02-27T15:50:17.098Z,39.50
2023-02-27T15:53:20.080Z,40.38
2023-02-27T15:55:58.692Z,40.88
2023-02-27T15:58:28.611Z,41.61
2023-02-27T16:01:18.795Z,41.77
2023-02-27T16:03:48.268Z,42.75
2023-02-27T16:06:35.148Z,42.96
2023-02-27T16:09:19.489Z,42.22
2023-02-27T16:11:46.154Z,43.73
2023-02-27T16:14:44.734Z,43.36
2023-02-27T16:17:25.030Z,43.19
2023-02-27T16:19:52.236Z,41.89
2023-02-27T16:22:20.715Z,41.51
2023-02-27T16:24:47.964Z,39.77
2023-02-27T16:27:26.637Z,39.84
2023-02-27T16:29:56.080Z,39.96
2023-02-27T16:32:34.709Z,39.13
2023-02-27T16:35:04.195Z,38.92
2023-02-27T16:37:38.717Z,38.18
2023-02-27T16:40:19.758Z,37.72
2023-02-27T16:42:46.897Z,38.69
2023-02-27T16:45:25.556Z,40.20
2023-02-27T16:47:58.470Z,39.07
2023-02-27T16:50:33.605Z,39.46
2023-02-27T16:53:00.197Z,39.23
2023-02-27T16:55:27.361Z,40.72
2023-02-27T16:57:54.255Z,40.83
2023-02-27T17:00:22.569Z,42.87
2023-02-27T17:02:49.919Z,43.58
2023-02-27T17:05:17.231Z,44.72
2023-02-27T17:07:44.782Z,44.64
2023-02-27T17:10:17.932Z,46.13
2023-02-27T17:12:44.388Z,46.60
2023-02-27T17:15:10.988Z,47.12
2023-02-27T17:17:37.491Z,47.95
2023-02-27T17:20:07.207Z,48.10
2023-02-27T17:22:39.458Z,49.02
2023-02-27T17:25:06.793Z,48.99
2023-02-27T17:27:33.617Z,49.77
2023-02-27T17:30:00.146Z,49.78
2023-02-27T17:32:26.977Z,50.35
2023-02-27T17:34:55.228Z,51.23
2023-02-27T17:37:22.461Z,50.97
2023-02-27T17:39:49.240Z,51.87
2023-02-27T17:42:18.468Z,51.76
2023-02-27T17:44:48.103Z,52.19
2023-02-27T17:47:15.281Z,52.75
2023-02-27T17:49:41.864Z,52.85
2023-02-27T17:52:09.264Z,53.65
2023-02-27T17:54:36.248Z,53.59
2023-02-27T17:57:04.897Z,53.91
2023-02-27T17:59:31.685Z,54.02
2023-02-27T18:01:58.730Z,54.16
2023-02-27T18:04:25.578Z,54.17
2023-02-27T18:06:52.182Z,54.63
2023-02-27T18:09:18.854Z,55.14
2023-02-27T18:11:45.390Z,55.38
2023-02-27T18:14:12.145Z,55.74
2023-02-27T18:16:38.668Z,56.28
2023-02-27T18:19:06.445Z,56.59
2023-02-27T18:21:33.854Z,56.86
2023-02-27T18:24:00.761Z,57.62
2023-02-27T18:26:32.519Z,57.09
2023-02-27T18:29:02.118Z,57.18
2023-02-27T18:31:36.213Z,57.43
2023-02-27T18:34:03.278Z,57.80
2023-02-27T18:36:31.280Z,58.53
2023-02-27T18:38:58.690Z,58.58
2023-02-27T18:41:25.751Z,58.83
2023-02-27T18:43:53.434Z,58.90
2023-02-27T18:46:20.212Z,59.15
2023-02-27T18:48:47.237Z,59.72
2023-02-27T18:51:15.435Z,60.27
2023-02-27T18:53:45.871Z,59.94
2023-02-27T18:56:13.839Z,60.58
2023-02-27T18:58:40.571Z,60.28
2023-02-27T19:01:07.577Z,60.31
2023-02-27T19:03:35.630Z,60.89
2023-02-27T19:06:02.194Z,60.57
2023-02-27T19:08:29.245Z,60.81
2023-02-27T19:10:56.916Z,61.15
2023-02-27T19:13:25.334Z,61.48
2023-02-27T19:15:52.665Z,61.40
2023-02-27T19:18:19.519Z,61.61
2023-02-27T19:20:45.974Z,61.34
2023-02-27T19:23:12.514Z,61.21
2023-02-27T19:25:39.145Z,61.96
2023-02-27T19:28:06.419Z,62.41
2023-02-27T19:30:33.286Z,62.19
2023-02-27T19:32:59.899Z,62.77
2023-02-27T19:35:26.410Z,63.22
2023-02-27T19:37:57.983Z,63.52
2023-02-27T19:40:26.192Z,63.50
2023-02-27T19:42:52.911Z,63.95
2023-02-27T19:45:20.268Z,63.86
2023-02-27T19:47:46.817Z,63.19
2023-02-27T19:50:13.873Z,64.03
2023-02-27T19:52:40.730Z,64.54
2023-02-27T19:55:07.860Z,64.14
2023-02-27T19:57:35.411Z,64.39
2023-02-27T20:00:01.943Z,63.72
2023-02-27T20:02:29.083Z,63.98
2023-02-27T20:04:55.679Z,64.39
2023-02-27T20:07:22.826Z,64.50
2023-02-27T20:09:49.682Z,64.07
2023-02-27T20:12:16.158Z,64.68
2023-02-27T20:14:42.605Z,64.93
2023-02-27T20:17:09.034Z,64.82
2023-02-27T20:19:36.446Z,65.55
2023-02-27T20:22:03.657Z,65.20
2023-02-27T20:24:30.172Z,65.90
2023-02-27T20:26:59.057Z,65.66
2023-02-27T20:29:27.290Z,65.71
2023-02-27T20:31:55.717Z,66.14
2023-02-27T20:34:26.206Z,66.09
2023-02-27T20:36:54.550Z,66.45
2023-02-27T20:39:21.813Z,66.61
2023-02-27T20:41:48.890Z,66.24
2023-02-27T20:44:15.411Z,66.30
2023-02-27T20:46:43.842Z,66.51
2023-02-27T20:49:12.449Z,66.71
2023-02-27T20:51:40.243Z,66.73
2023-02-27T20:54:13.482Z,66.96
2023-02-27T20:56:43.176Z,67.99
2023-02-27T20:59:13.527Z,67.60
2023-02-27T21:01:40.296Z,68.04
2023-02-27T21:04:07.085Z,68.53
2023-02-27T21:06:34.904Z,68.77
2023-02-27T21:09:05.327Z,68.41
2023-02-27T21:11:33.272Z,68.54
2023-02-27T21:14:04.159Z,68.56
2023-02-27T21:16:31.171Z,68.65
2023-02-27T21:18:57.785Z,69.45
2023-02-27T21:21:28.088Z,69.55
2023-02-27T21:23:55.078Z,69.86
2023-02-27T21:26:24.940Z,69.41
2023-02-27T21:29:04.829Z,69.61
2023-02-27T21:31:33.168Z,70.44
2023-02-27T21:34:01.860Z,69.86
2023-02-27T21:36:32.223Z,70.33
2023-02-27T21:39:00.406Z,70.43
2023-02-27T21:41:28.476Z,70.00
2023-02-27T21:44:03.708Z,70.99
2023-02-27T21:46:31.257Z,71.00
2023-02-27T21:48:58.491Z,70.67
2023-02-27T21:51:38.813Z,71.02
2023-02-27T21:54:06.717Z,70.33
2023-02-27T21:56:33.252Z,70.99
2023-02-27T21:59:01.876Z,71.38
2023-02-27T22:01:29.594Z,71.53
2023-02-27T22:03:57.039Z,71.77
2023-02-27T22:06:25.329Z,71.74
2023-02-27T22:08:57.588Z,71.61
2023-02-27T22:11:26.607Z,71.32
2023-02-27T22:13:53.314Z,72.09
2023-02-27T22:16:20.570Z,71.82
2023-02-27T22:18:47.652Z,72.67
2023-02-27T22:21:22.576Z,72.91
2023-02-27T22:23:49.529Z,72.79
2023-02-27T22:26:20.351Z,73.13
2023-02-27T22:28:47.123Z,73.19
2023-02-27T22:31:18.989Z,73.58
2023-02-27T22:33:47.809Z,73.81
2023-02-27T22:36:24.331Z,73.32
2023-02-27T22:38:51.923Z,73.44
2023-02-27T22:41:24.525Z,73.62
2023-02-27T22:43:51.365Z,74.01
2023-02-27T22:46:27.035Z,73.67
2023-02-27T22:48:58.459Z,74.19
2023-02-27T22:51:27.793Z,74.25
2023-02-27T22:53:56.706Z,74.51
2023-02-27T22:56:23.935Z,75.00
2023-02-27T22:58:50.510Z,74.70
2023-02-27T23:01:22.889Z,74.80
2023-02-27T23:03:51.589Z,75.30
2023-02-27T23:06:21.396Z,74.90
2023-02-27T23:08:48.447Z,75.33
2023-02-27T23:11:16.597Z,75.01
2023-02-27T23:13:43.178Z,75.35
2023-02-27T23:16:13.742Z,75.04
2023-02-27T23:18:41.737Z,75.51
2023-02-27T23:21:09.554Z,75.63
2023-02-27T23:23:36.499Z,75.37
2023-02-27T23:26:04.363Z,75.20
2023-02-27T23:28:30.845Z,75.81
2023-02-27T23:30:57.412Z,75.62
2023-02-27T23:33:23.910Z,74.99
2023-02-27T23:35:51.846Z,75.23
2023-02-27T23:38:18.740Z,75.61
2023-02-27T23:40:45.223Z,75.48
2023-02-27T23:43:30.459Z,75.56
2023-02-27T23:45:56.972Z,75.84
2023-02-27T23:48:23.972Z,76.08
2023-02-27T23:50:50.432Z,75.71
2023-02-27T23:53:17.122Z,76.03
2023-02-27T23:55:44.043Z,76.55
2023-02-27T23:58:11.261Z,76.50
